Spring Ranch, Nebraska
Current Conditions -  °F | °C
As of 8:53 AM on Thursday 30 Oct 2014 (Local Time) from KHSI Reporting Station
Clear Clear  
Wind Chill: 41°   Ceiling: Unl
Heat Index: 47°   Visibility: 10mi
Dew Point: 34°   Wind: 13mph
Humidity: 61%   Direction: 310°NW
Pressure: 30.13"   Gusts: NA
Location:  40.387°N, 98.1945°W
Report Text: KHSI 301353Z AUTO 31011KT 10SM CLR 08/01 A3013 RMK AO2 SLP206 T00830011
Loading
Personal Weather Stations






























Interactive Weather Map
Tropical Storm Tracking
New forecast layout! Learn more

10-Day Weather Forecast

Advertisements
Track Severe Weather on mobile